sensor_id;sensor_type;location;lat;lon;timestamp;P1;durP1;ratioP1;P2;durP2;ratioP2
3081;SDS011;1551;51.046;7.010;2023-02-15T00:02:37;27.80;;;18.80;;
3081;SDS011;1551;51.046;7.010;2023-02-15T00:05:27;23.42;;;18.73;;
3081;SDS011;1551;51.046;7.010;2023-02-15T00:08:18;25.88;;;19.17;;
3081;SDS011;1551;51.046;7.010;2023-02-15T00:11:07;26.52;;;18.95;;
3081;SDS011;1551;51.046;7.010;2023-02-15T00:13:58;28.30;;;19.40;;
3081;SDS011;1551;51.046;7.010;2023-02-15T00:16:47;24.98;;;18.50;;
3081;SDS011;1551;51.046;7.010;2023-02-15T00:19:37;27.25;;;19.20;;
3081;SDS011;1551;51.046;7.010;2023-02-15T00:22:26;26.20;;;18.70;;
3081;SDS011;1551;51.046;7.010;2023-02-15T00:25:15;23.75;;;16.92;;
3081;SDS011;1551;51.046;7.010;2023-02-15T00:28:04;29.08;;;19.80;;
3081;SDS011;1551;51.046;7.010;2023-02-15T00:31:04;26.83;;;19.48;;
3081;SDS011;1551;51.046;7.010;2023-02-15T00:33:54;22.85;;;17.58;;
3081;SDS011;1551;51.046;7.010;2023-02-15T00:36:43;29.73;;;19.90;;
3081;SDS011;1551;51.046;7.010;2023-02-15T00:39:33;25.08;;;18.70;;
3081;SDS011;1551;51.046;7.010;2023-02-15T00:42:22;28.13;;;20.67;;
3081;SDS011;1551;51.046;7.010;2023-02-15T00:45:11;28.58;;;19.90;;
3081;SDS011;1551;51.046;7.010;2023-02-15T00:48:00;26.60;;;20.48;;
3081;SDS011;1551;51.046;7.010;2023-02-15T00:50:49;25.00;;;18.30;;
3081;SDS011;1551;51.046;7.010;2023-02-15T00:53:43;28.83;;;20.80;;
3081;SDS011;1551;51.046;7.010;2023-02-15T00:56:33;26.20;;;18.17;;
3081;SDS011;1551;51.046;7.010;2023-02-15T00:59:22;26.02;;;18.77;;
3081;SDS011;1551;51.046;7.010;2023-02-15T01:02:11;24.60;;;18.88;;
3081;SDS011;1551;51.046;7.010;2023-02-15T01:05:00;28.92;;;19.65;;
3081;SDS011;1551;51.046;7.010;2023-02-15T01:07:49;27.45;;;18.88;;
3081;SDS011;1551;51.046;7.010;2023-02-15T01:10:37;25.70;;;18.27;;
3081;SDS011;1551;51.046;7.010;2023-02-15T01:13:27;23.42;;;18.23;;
3081;SDS011;1551;51.046;7.010;2023-02-15T01:16:16;23.90;;;18.50;;
3081;SDS011;1551;51.046;7.010;2023-02-15T01:19:06;26.58;;;18.33;;
3081;SDS011;1551;51.046;7.010;2023-02-15T01:21:54;28.43;;;19.60;;
3081;SDS011;1551;51.046;7.010;2023-02-15T01:24:43;27.27;;;19.80;;
3081;SDS011;1551;51.046;7.010;2023-02-15T01:27:33;24.15;;;18.77;;
3081;SDS011;1551;51.046;7.010;2023-02-15T01:30:22;23.05;;;18.48;;
3081;SDS011;1551;51.046;7.010;2023-02-15T01:33:11;28.52;;;20.65;;
3081;SDS011;1551;51.046;7.010;2023-02-15T01:36:06;25.38;;;18.00;;
3081;SDS011;1551;51.046;7.010;2023-02-15T01:38:55;23.50;;;17.58;;
3081;SDS011;1551;51.046;7.010;2023-02-15T01:41:44;26.00;;;17.77;;
3081;SDS011;1551;51.046;7.010;2023-02-15T01:44:49;25.52;;;18.60;;
3081;SDS011;1551;51.046;7.010;2023-02-15T01:47:45;24.25;;;17.60;;
3081;SDS011;1551;51.046;7.010;2023-02-15T01:50:43;24.80;;;18.25;;
3081;SDS011;1551;51.046;7.010;2023-02-15T01:53:57;23.48;;;18.10;;
3081;SDS011;1551;51.046;7.010;2023-02-15T01:56:50;25.98;;;18.98;;
3081;SDS011;1551;51.046;7.010;2023-02-15T01:59:41;22.60;;;18.00;;
3081;SDS011;1551;51.046;7.010;2023-02-15T02:02:34;23.85;;;17.48;;
3081;SDS011;1551;51.046;7.010;2023-02-15T02:05:24;26.85;;;18.10;;
3081;SDS011;1551;51.046;7.010;2023-02-15T02:08:13;28.30;;;19.27;;
3081;SDS011;1551;51.046;7.010;2023-02-15T02:11:02;22.65;;;17.00;;
3081;SDS011;1551;51.046;7.010;2023-02-15T02:13:51;28.67;;;19.67;;
3081;SDS011;1551;51.046;7.010;2023-02-15T02:25:32;28.10;;;19.23;;
3081;SDS011;1551;51.046;7.010;2023-02-15T02:34:40;26.08;;;18.10;;
3081;SDS011;1551;51.046;7.010;2023-02-15T02:37:45;25.75;;;18.45;;
3081;SDS011;1551;51.046;7.010;2023-02-15T02:50:21;25.35;;;19.35;;
3081;SDS011;1551;51.046;7.010;2023-02-15T02:53:12;24.27;;;17.35;;
3081;SDS011;1551;51.046;7.010;2023-02-15T02:59:31;31.40;;;21.58;;
3081;SDS011;1551;51.046;7.010;2023-02-15T03:02:26;27.40;;;20.90;;
3081;SDS011;1551;51.046;7.010;2023-02-15T03:05:21;27.98;;;20.40;;
3081;SDS011;1551;51.046;7.010;2023-02-15T03:08:15;25.75;;;19.27;;
3081;SDS011;1551;51.046;7.010;2023-02-15T03:11:10;29.33;;;19.90;;
3081;SDS011;1551;51.046;7.010;2023-02-15T03:14:00;26.80;;;18.65;;
3081;SDS011;1551;51.046;7.010;2023-02-15T03:16:51;29.90;;;21.00;;
3081;SDS011;1551;51.046;7.010;2023-02-15T03:19:41;24.42;;;17.50;;
3081;SDS011;1551;51.046;7.010;2023-02-15T03:22:38;27.95;;;19.73;;
3081;SDS011;1551;51.046;7.010;2023-02-15T03:25:36;27.13;;;17.58;;
3081;SDS011;1551;51.046;7.010;2023-02-15T03:28:38;24.42;;;18.05;;
3081;SDS011;1551;51.046;7.010;2023-02-15T03:31:32;24.52;;;18.15;;
3081;SDS011;1551;51.046;7.010;2023-02-15T03:34:24;26.92;;;18.58;;
3081;SDS011;1551;51.046;7.010;2023-02-15T03:37:22;28.23;;;18.52;;
3081;SDS011;1551;51.046;7.010;2023-02-15T03:44:01;24.92;;;18.65;;
3081;SDS011;1551;51.046;7.010;2023-02-15T03:47:00;26.10;;;17.60;;
3081;SDS011;1551;51.046;7.010;2023-02-15T03:49:56;26.30;;;18.90;;
3081;SDS011;1551;51.046;7.010;2023-02-15T03:52:50;26.27;;;18.27;;
3081;SDS011;1551;51.046;7.010;2023-02-15T03:55:41;27.53;;;18.50;;
3081;SDS011;1551;51.046;7.010;2023-02-15T03:58:30;27.45;;;18.63;;
3081;SDS011;1551;51.046;7.010;2023-02-15T04:01:40;25.92;;;19.27;;
3081;SDS011;1551;51.046;7.010;2023-02-15T04:04:49;24.48;;;17.90;;
3081;SDS011;1551;51.046;7.010;2023-02-15T04:07:38;26.00;;;18.33;;
3081;SDS011;1551;51.046;7.010;2023-02-15T04:10:27;25.93;;;19.20;;
3081;SDS011;1551;51.046;7.010;2023-02-15T04:13:35;25.23;;;17.80;;
3081;SDS011;1551;51.046;7.010;2023-02-15T04:16:24;25.55;;;17.85;;
3081;SDS011;1551;51.046;7.010;2023-02-15T04:19:14;25.88;;;18.27;;
3081;SDS011;1551;51.046;7.010;2023-02-15T04:22:22;24.27;;;17.35;;
3081;SDS011;1551;51.046;7.010;2023-02-15T04:25:30;26.15;;;18.38;;
3081;SDS011;1551;51.046;7.010;2023-02-15T04:28:18;25.48;;;19.00;;
3081;SDS011;1551;51.046;7.010;2023-02-15T04:31:08;28.17;;;19.48;;
3081;SDS011;1551;51.046;7.010;2023-02-15T04:33:57;26.80;;;19.10;;
3081;SDS011;1551;51.046;7.010;2023-02-15T04:36:46;26.58;;;18.35;;
3081;SDS011;1551;51.046;7.010;2023-02-15T04:39:35;24.70;;;17.95;;
3081;SDS011;1551;51.046;7.010;2023-02-15T04:42:25;27.15;;;17.80;;
3081;SDS011;1551;51.046;7.010;2023-02-15T04:45:14;26.38;;;18.55;;
3081;SDS011;1551;51.046;7.010;2023-02-15T04:48:03;26.20;;;17.73;;
3081;SDS011;1551;51.046;7.010;2023-02-15T04:50:52;25.05;;;18.63;;
3081;SDS011;1551;51.046;7.010;2023-02-15T04:53:41;21.93;;;16.10;;
3081;SDS011;1551;51.046;7.010;2023-02-15T04:56:30;24.70;;;16.58;;
3081;SDS011;1551;51.046;7.010;2023-02-15T04:59:21;24.52;;;17.70;;
3081;SDS011;1551;51.046;7.010;2023-02-15T05:02:10;28.55;;;18.65;;
3081;SDS011;1551;51.046;7.010;2023-02-15T05:04:59;25.40;;;18.27;;
3081;SDS011;1551;51.046;7.010;2023-02-15T05:07:48;22.98;;;17.00;;
3081;SDS011;1551;51.046;7.010;2023-02-15T05:10:37;24.50;;;17.08;;
3081;SDS011;1551;51.046;7.010;2023-02-15T05:13:26;28.75;;;18.58;;
3081;SDS011;1551;51.046;7.010;2023-02-15T05:16:15;24.33;;;16.35;;
3081;SDS011;1551;51.046;7.010;2023-02-15T05:19:04;26.00;;;18.02;;
3081;SDS011;1551;51.046;7.010;2023-02-15T05:21:53;25.15;;;17.20;;
3081;SDS011;1551;51.046;7.010;2023-02-15T05:24:42;23.33;;;17.70;;
3081;SDS011;1551;51.046;7.010;2023-02-15T05:27:50;30.00;;;19.95;;
3081;SDS011;1551;51.046;7.010;2023-02-15T05:31:03;27.58;;;18.65;;
3081;SDS011;1551;51.046;7.010;2023-02-15T05:33:52;26.10;;;17.63;;
3081;SDS011;1551;51.046;7.010;2023-02-15T05:36:41;27.08;;;17.63;;
3081;SDS011;1551;51.046;7.010;2023-02-15T05:39:30;25.63;;;18.30;;
3081;SDS011;1551;51.046;7.010;2023-02-15T05:42:19;25.08;;;17.77;;
3081;SDS011;1551;51.046;7.010;2023-02-15T05:45:08;27.10;;;19.50;;
3081;SDS011;1551;51.046;7.010;2023-02-15T05:47:58;28.35;;;18.30;;
3081;SDS011;1551;51.046;7.010;2023-02-15T05:50:56;28.42;;;19.48;;
3081;SDS011;1551;51.046;7.010;2023-02-15T05:53:49;26.48;;;18.85;;
3081;SDS011;1551;51.046;7.010;2023-02-15T05:56:38;26.63;;;18.60;;
3081;SDS011;1551;51.046;7.010;2023-02-15T05:59:27;25.55;;;18.02;;
3081;SDS011;1551;51.046;7.010;2023-02-15T06:02:16;29.40;;;18.75;;
3081;SDS011;1551;51.046;7.010;2023-02-15T06:05:05;31.25;;;20.27;;
3081;SDS011;1551;51.046;7.010;2023-02-15T06:07:55;30.08;;;19.27;;
3081;SDS011;1551;51.046;7.010;2023-02-15T06:10:47;23.92;;;17.17;;
3081;SDS011;1551;51.046;7.010;2023-02-15T06:13:36;27.15;;;19.33;;
3081;SDS011;1551;51.046;7.010;2023-02-15T06:16:25;26.90;;;17.70;;
3081;SDS011;1551;51.046;7.010;2023-02-15T06:19:14;25.60;;;18.13;;
3081;SDS011;1551;51.046;7.010;2023-02-15T06:22:03;24.35;;;17.33;;
3081;SDS011;1551;51.046;7.010;2023-02-15T06:24:52;28.25;;;18.05;;
3081;SDS011;1551;51.046;7.010;2023-02-15T06:27:41;24.42;;;17.45;;
3081;SDS011;1551;51.046;7.010;2023-02-15T06:30:31;23.40;;;16.83;;
3081;SDS011;1551;51.046;7.010;2023-02-15T06:33:21;25.08;;;17.30;;
3081;SDS011;1551;51.046;7.010;2023-02-15T06:36:10;27.75;;;18.80;;
3081;SDS011;1551;51.046;7.010;2023-02-15T06:39:01;26.45;;;18.00;;
3081;SDS011;1551;51.046;7.010;2023-02-15T06:41:51;29.70;;;17.83;;
3081;SDS011;1551;51.046;7.010;2023-02-15T06:44:40;27.10;;;18.00;;
3081;SDS011;1551;51.046;7.010;2023-02-15T06:47:29;26.00;;;17.15;;
3081;SDS011;1551;51.046;7.010;2023-02-15T06:50:18;26.67;;;16.67;;
3081;SDS011;1551;51.046;7.010;2023-02-15T06:53:07;22.88;;;16.45;;
3081;SDS011;1551;51.046;7.010;2023-02-15T06:56:00;24.53;;;16.73;;
3081;SDS011;1551;51.046;7.010;2023-02-15T06:58:51;23.73;;;17.42;;
3081;SDS011;1551;51.046;7.010;2023-02-15T07:01:41;25.25;;;16.45;;
3081;SDS011;1551;51.046;7.010;2023-02-15T07:04:30;24.60;;;16.98;;
3081;SDS011;1551;51.046;7.010;2023-02-15T07:07:19;25.83;;;17.83;;
3081;SDS011;1551;51.046;7.010;2023-02-15T07:10:09;21.67;;;16.45;;
3081;SDS011;1551;51.046;7.010;2023-02-15T07:12:58;25.80;;;18.15;;
3081;SDS011;1551;51.046;7.010;2023-02-15T07:15:47;22.02;;;16.60;;
3081;SDS011;1551;51.046;7.010;2023-02-15T07:18:37;24.95;;;17.27;;
3081;SDS011;1551;51.046;7.010;2023-02-15T07:21:26;23.10;;;16.88;;
3081;SDS011;1551;51.046;7.010;2023-02-15T07:24:16;23.25;;;16.27;;
3081;SDS011;1551;51.046;7.010;2023-02-15T07:27:06;25.90;;;16.25;;
3081;SDS011;1551;51.046;7.010;2023-02-15T07:29:56;21.88;;;16.70;;
3081;SDS011;1551;51.046;7.010;2023-02-15T07:32:45;25.27;;;17.25;;
3081;SDS011;1551;51.046;7.010;2023-02-15T07:35:54;26.63;;;16.63;;
3081;SDS011;1551;51.046;7.010;2023-02-15T07:38:46;25.30;;;16.27;;
3081;SDS011;1551;51.046;7.010;2023-02-15T07:41:35;22.17;;;16.10;;
3081;SDS011;1551;51.046;7.010;2023-02-15T07:44:33;22.45;;;16.73;;
3081;SDS011;1551;51.046;7.010;2023-02-15T07:47:22;22.85;;;14.68;;
3081;SDS011;1551;51.046;7.010;2023-02-15T07:50:11;23.27;;;15.57;;
3081;SDS011;1551;51.046;7.010;2023-02-15T07:53:03;24.60;;;17.23;;
3081;SDS011;1551;51.046;7.010;2023-02-15T07:55:52;21.73;;;15.27;;
3081;SDS011;1551;51.046;7.010;2023-02-15T07:58:41;31.05;;;19.70;;
3081;SDS011;1551;51.046;7.010;2023-02-15T08:01:39;27.23;;;18.30;;
3081;SDS011;1551;51.046;7.010;2023-02-15T08:04:28;25.52;;;17.73;;
3081;SDS011;1551;51.046;7.010;2023-02-15T08:07:17;21.95;;;16.48;;
3081;SDS011;1551;51.046;7.010;2023-02-15T08:10:06;23.13;;;16.92;;
3081;SDS011;1551;51.046;7.010;2023-02-15T08:12:56;21.95;;;16.60;;
3081;SDS011;1551;51.046;7.010;2023-02-15T08:15:49;23.02;;;16.40;;
3081;SDS011;1551;51.046;7.010;2023-02-15T08:18:38;23.85;;;16.13;;
3081;SDS011;1551;51.046;7.010;2023-02-15T08:21:28;31.80;;;20.70;;
3081;SDS011;1551;51.046;7.010;2023-02-15T08:24:18;21.25;;;15.07;;
3081;SDS011;1551;51.046;7.010;2023-02-15T08:27:09;20.38;;;15.15;;
3081;SDS011;1551;51.046;7.010;2023-02-15T08:29:59;23.00;;;16.30;;
3081;SDS011;1551;51.046;7.010;2023-02-15T08:32:48;21.55;;;14.40;;
3081;SDS011;1551;51.046;7.010;2023-02-15T08:35:37;22.52;;;15.57;;
3081;SDS011;1551;51.046;7.010;2023-02-15T08:38:26;20.33;;;14.30;;
3081;SDS011;1551;51.046;7.010;2023-02-15T08:44:07;17.98;;;14.10;;
3081;SDS011;1551;51.046;7.010;2023-02-15T08:46:57;15.90;;;12.93;;
3081;SDS011;1551;51.046;7.010;2023-02-15T08:49:51;17.52;;;13.00;;
3081;SDS011;1551;51.046;7.010;2023-02-15T08:52:40;16.00;;;12.55;;
3081;SDS011;1551;51.046;7.010;2023-02-15T08:55:29;17.57;;;12.80;;
3081;SDS011;1551;51.046;7.010;2023-02-15T08:58:18;15.30;;;11.57;;
3081;SDS011;1551;51.046;7.010;2023-02-15T09:01:11;15.98;;;11.68;;
3081;SDS011;1551;51.046;7.010;2023-02-15T09:04:06;17.05;;;13.13;;
3081;SDS011;1551;51.046;7.010;2023-02-15T09:06:59;16.80;;;12.35;;
3081;SDS011;1551;51.046;7.010;2023-02-15T09:09:48;17.05;;;12.32;;
3081;SDS011;1551;51.046;7.010;2023-02-15T09:12:37;17.27;;;12.75;;
3081;SDS011;1551;51.046;7.010;2023-02-15T09:15:26;18.30;;;12.48;;
3081;SDS011;1551;51.046;7.010;2023-02-15T09:18:15;15.80;;;11.48;;
3081;SDS011;1551;51.046;7.010;2023-02-15T09:23:57;15.65;;;11.13;;
3081;SDS011;1551;51.046;7.010;2023-02-15T09:26:48;14.20;;;11.05;;
3081;SDS011;1551;51.046;7.010;2023-02-15T09:29:38;19.27;;;12.07;;
3081;SDS011;1551;51.046;7.010;2023-02-15T09:32:26;15.30;;;11.47;;
3081;SDS011;1551;51.046;7.010;2023-02-15T09:35:15;15.55;;;11.43;;
3081;SDS011;1551;51.046;7.010;2023-02-15T09:38:04;15.27;;;11.60;;
3081;SDS011;1551;51.046;7.010;2023-02-15T09:40:58;15.52;;;11.60;;
3081;SDS011;1551;51.046;7.010;2023-02-15T09:50:21;13.02;;;10.52;;
3081;SDS011;1551;51.046;7.010;2023-02-15T09:56:38;13.20;;;10.80;;
3081;SDS011;1551;51.046;7.010;2023-02-15T10:02:43;14.00;;;11.00;;
3081;SDS011;1551;51.046;7.010;2023-02-15T10:15:52;13.18;;;11.00;;
3081;SDS011;1551;51.046;7.010;2023-02-15T10:27:48;13.07;;;10.07;;
3081;SDS011;1551;51.046;7.010;2023-02-15T10:30:42;13.60;;;11.10;;
3081;SDS011;1551;51.046;7.010;2023-02-15T10:33:39;13.32;;;11.13;;
3081;SDS011;1551;51.046;7.010;2023-02-15T10:36:41;11.35;;;9.70;;
3081;SDS011;1551;51.046;7.010;2023-02-15T10:43:14;11.50;;;9.77;;
3081;SDS011;1551;51.046;7.010;2023-02-15T10:50:03;13.07;;;10.25;;
3081;SDS011;1551;51.046;7.010;2023-02-15T10:56:08;12.80;;;9.68;;
3081;SDS011;1551;51.046;7.010;2023-02-15T10:59:16;13.65;;;11.50;;
3081;SDS011;1551;51.046;7.010;2023-02-15T11:03:05;12.43;;;10.05;;
3081;SDS011;1551;51.046;7.010;2023-02-15T11:06:09;13.20;;;9.82;;
3081;SDS011;1551;51.046;7.010;2023-02-15T11:09:08;12.38;;;10.13;;
3081;SDS011;1551;51.046;7.010;2023-02-15T11:12:01;12.15;;;9.98;;
3081;SDS011;1551;51.046;7.010;2023-02-15T11:15:15;12.07;;;10.38;;
3081;SDS011;1551;51.046;7.010;2023-02-15T11:21:21;11.88;;;10.55;;
3081;SDS011;1551;51.046;7.010;2023-02-15T11:24:14;12.00;;;9.80;;
3081;SDS011;1551;51.046;7.010;2023-02-15T11:30:20;11.50;;;9.88;;
3081;SDS011;1551;51.046;7.010;2023-02-15T11:33:18;12.98;;;10.63;;
3081;SDS011;1551;51.046;7.010;2023-02-15T11:36:13;12.07;;;10.77;;
3081;SDS011;1551;51.046;7.010;2023-02-15T11:39:23;12.95;;;11.05;;
3081;SDS011;1551;51.046;7.010;2023-02-15T11:42:18;11.77;;;10.23;;
3081;SDS011;1551;51.046;7.010;2023-02-15T11:45:28;10.63;;;9.23;;
3081;SDS011;1551;51.046;7.010;2023-02-15T11:48:18;11.98;;;10.00;;
3081;SDS011;1551;51.046;7.010;2023-02-15T11:51:14;11.13;;;9.38;;
3081;SDS011;1551;51.046;7.010;2023-02-15T11:54:07;11.55;;;9.23;;
3081;SDS011;1551;51.046;7.010;2023-02-15T11:56:59;10.45;;;9.35;;
3081;SDS011;1551;51.046;7.010;2023-02-15T12:00:00;11.30;;;9.10;;
3081;SDS011;1551;51.046;7.010;2023-02-15T12:02:50;11.43;;;9.27;;
3081;SDS011;1551;51.046;7.010;2023-02-15T12:05:42;11.18;;;9.82;;
3081;SDS011;1551;51.046;7.010;2023-02-15T12:08:39;15.07;;;10.70;;
3081;SDS011;1551;51.046;7.010;2023-02-15T12:11:33;10.60;;;9.50;;
3081;SDS011;1551;51.046;7.010;2023-02-15T12:14:24;10.35;;;9.25;;
3081;SDS011;1551;51.046;7.010;2023-02-15T12:17:13;11.73;;;10.30;;
3081;SDS011;1551;51.046;7.010;2023-02-15T12:20:07;11.23;;;9.27;;
3081;SDS011;1551;51.046;7.010;2023-02-15T12:23:13;11.07;;;9.95;;
3081;SDS011;1551;51.046;7.010;2023-02-15T12:26:04;11.00;;;9.63;;
3081;SDS011;1551;51.046;7.010;2023-02-15T12:28:54;11.97;;;9.60;;
3081;SDS011;1551;51.046;7.010;2023-02-15T12:31:47;10.63;;;9.00;;
3081;SDS011;1551;51.046;7.010;2023-02-15T12:34:39;11.00;;;9.10;;
3081;SDS011;1551;51.046;7.010;2023-02-15T12:37:30;11.60;;;8.70;;
3081;SDS011;1551;51.046;7.010;2023-02-15T12:40:29;11.37;;;9.80;;
3081;SDS011;1551;51.046;7.010;2023-02-15T12:43:27;10.70;;;8.77;;
3081;SDS011;1551;51.046;7.010;2023-02-15T12:46:24;12.00;;;8.85;;
3081;SDS011;1551;51.046;7.010;2023-02-15T12:49:18;10.25;;;9.15;;
3081;SDS011;1551;51.046;7.010;2023-02-15T12:55:17;11.35;;;8.88;;
3081;SDS011;1551;51.046;7.010;2023-02-15T12:58:19;11.10;;;9.87;;
3081;SDS011;1551;51.046;7.010;2023-02-15T13:01:15;10.57;;;9.48;;
3081;SDS011;1551;51.046;7.010;2023-02-15T13:04:12;11.82;;;9.95;;
3081;SDS011;1551;51.046;7.010;2023-02-15T13:07:03;10.52;;;9.15;;
3081;SDS011;1551;51.046;7.010;2023-02-15T13:09:52;10.27;;;8.65;;
3081;SDS011;1551;51.046;7.010;2023-02-15T13:12:41;10.07;;;9.02;;
3081;SDS011;1551;51.046;7.010;2023-02-15T13:15:36;12.77;;;10.50;;
3081;SDS011;1551;51.046;7.010;2023-02-15T13:18:35;11.35;;;9.38;;
3081;SDS011;1551;51.046;7.010;2023-02-15T13:21:29;11.98;;;10.50;;
3081;SDS011;1551;51.046;7.010;2023-02-15T13:24:26;11.10;;;9.60;;
3081;SDS011;1551;51.046;7.010;2023-02-15T13:27:20;10.52;;;8.73;;
3081;SDS011;1551;51.046;7.010;2023-02-15T13:30:31;10.70;;;9.60;;
3081;SDS011;1551;51.046;7.010;2023-02-15T13:33:31;12.15;;;10.02;;
3081;SDS011;1551;51.046;7.010;2023-02-15T13:42:20;12.02;;;9.63;;
3081;SDS011;1551;51.046;7.010;2023-02-15T13:45:31;10.20;;;9.10;;
3081;SDS011;1551;51.046;7.010;2023-02-15T14:03:43;10.85;;;9.75;;
3081;SDS011;1551;51.046;7.010;2023-02-15T14:18:50;13.20;;;11.90;;
3081;SDS011;1551;51.046;7.010;2023-02-15T14:21:59;10.85;;;8.93;;
3081;SDS011;1551;51.046;7.010;2023-02-15T14:25:14;12.50;;;10.23;;
3081;SDS011;1551;51.046;7.010;2023-02-15T14:28:19;11.45;;;9.85;;
3081;SDS011;1551;51.046;7.010;2023-02-15T14:31:19;10.18;;;8.52;;
3081;SDS011;1551;51.046;7.010;2023-02-15T14:34:18;11.27;;;9.70;;
3081;SDS011;1551;51.046;7.010;2023-02-15T14:37:13;10.27;;;9.18;;
3081;SDS011;1551;51.046;7.010;2023-02-15T14:49:52;11.80;;;10.15;;
3081;SDS011;1551;51.046;7.010;2023-02-15T14:58:58;12.13;;;9.65;;
3081;SDS011;1551;51.046;7.010;2023-02-15T15:01:57;13.20;;;10.57;;
3081;SDS011;1551;51.046;7.010;2023-02-15T15:04:55;13.32;;;10.45;;
3081;SDS011;1551;51.046;7.010;2023-02-15T15:07:52;11.57;;;10.10;;
3081;SDS011;1551;51.046;7.010;2023-02-15T15:10:44;11.87;;;9.80;;
3081;SDS011;1551;51.046;7.010;2023-02-15T15:13:35;11.47;;;9.30;;
3081;SDS011;1551;51.046;7.010;2023-02-15T15:16:33;12.63;;;10.27;;
3081;SDS011;1551;51.046;7.010;2023-02-15T15:19:56;17.80;;;10.00;;
3081;SDS011;1551;51.046;7.010;2023-02-15T15:22:47;12.77;;;10.70;;
3081;SDS011;1551;51.046;7.010;2023-02-15T15:31:26;14.20;;;10.50;;
3081;SDS011;1551;51.046;7.010;2023-02-15T15:34:45;12.90;;;10.48;;
3081;SDS011;1551;51.046;7.010;2023-02-15T15:40:52;17.75;;;11.55;;
3081;SDS011;1551;51.046;7.010;2023-02-15T15:44:11;12.50;;;10.88;;
3081;SDS011;1551;51.046;7.010;2023-02-15T15:50:39;15.30;;;11.80;;
3081;SDS011;1551;51.046;7.010;2023-02-15T15:53:32;15.60;;;11.90;;
3081;SDS011;1551;51.046;7.010;2023-02-15T15:56:33;12.10;;;10.77;;
3081;SDS011;1551;51.046;7.010;2023-02-15T15:59:25;14.05;;;11.10;;
3081;SDS011;1551;51.046;7.010;2023-02-15T16:02:16;13.60;;;11.15;;
3081;SDS011;1551;51.046;7.010;2023-02-15T16:05:07;13.80;;;10.90;;
3081;SDS011;1551;51.046;7.010;2023-02-15T16:07:57;13.20;;;10.98;;
3081;SDS011;1551;51.046;7.010;2023-02-15T16:10:46;15.75;;;11.32;;
3081;SDS011;1551;51.046;7.010;2023-02-15T16:13:35;16.60;;;12.23;;
3081;SDS011;1551;51.046;7.010;2023-02-15T16:16:25;15.68;;;12.13;;
3081;SDS011;1551;51.046;7.010;2023-02-15T16:19:18;14.73;;;12.43;;
3081;SDS011;1551;51.046;7.010;2023-02-15T16:22:15;17.13;;;12.85;;
3081;SDS011;1551;51.046;7.010;2023-02-15T16:28:35;14.93;;;10.70;;
3081;SDS011;1551;51.046;7.010;2023-02-15T16:31:24;14.25;;;10.30;;
3081;SDS011;1551;51.046;7.010;2023-02-15T16:34:16;17.50;;;12.60;;
3081;SDS011;1551;51.046;7.010;2023-02-15T16:40:02;15.05;;;12.00;;
3081;SDS011;1551;51.046;7.010;2023-02-15T16:42:51;14.68;;;11.27;;
3081;SDS011;1551;51.046;7.010;2023-02-15T16:45:44;13.90;;;11.05;;
3081;SDS011;1551;51.046;7.010;2023-02-15T16:48:34;14.55;;;11.65;;
3081;SDS011;1551;51.046;7.010;2023-02-15T16:51:31;12.77;;;9.77;;
3081;SDS011;1551;51.046;7.010;2023-02-15T16:54:22;15.27;;;11.47;;
3081;SDS011;1551;51.046;7.010;2023-02-15T16:57:16;14.68;;;11.40;;
3081;SDS011;1551;51.046;7.010;2023-02-15T17:00:18;16.67;;;11.30;;
3081;SDS011;1551;51.046;7.010;2023-02-15T17:06:02;15.73;;;11.07;;
3081;SDS011;1551;51.046;7.010;2023-02-15T17:08:52;15.10;;;11.20;;
3081;SDS011;1551;51.046;7.010;2023-02-15T17:11:52;15.23;;;11.57;;
3081;SDS011;1551;51.046;7.010;2023-02-15T17:14:42;15.45;;;11.25;;
3081;SDS011;1551;51.046;7.010;2023-02-15T17:17:31;16.30;;;11.93;;
3081;SDS011;1551;51.046;7.010;2023-02-15T17:20:20;15.20;;;12.07;;
3081;SDS011;1551;51.046;7.010;2023-02-15T17:26:12;16.20;;;12.40;;
3081;SDS011;1551;51.046;7.010;2023-02-15T17:29:18;17.65;;;13.18;;
3081;SDS011;1551;51.046;7.010;2023-02-15T17:32:25;17.83;;;15.05;;
3081;SDS011;1551;51.046;7.010;2023-02-15T17:35:20;24.52;;;19.88;;
3081;SDS011;1551;51.046;7.010;2023-02-15T17:38:19;16.88;;;13.98;;
3081;SDS011;1551;51.046;7.010;2023-02-15T17:41:08;15.10;;;13.47;;
3081;SDS011;1551;51.046;7.010;2023-02-15T17:43:57;13.38;;;11.52;;
3081;SDS011;1551;51.046;7.010;2023-02-15T17:46:46;15.25;;;13.18;;
3081;SDS011;1551;51.046;7.010;2023-02-15T17:49:35;14.18;;;12.05;;
3081;SDS011;1551;51.046;7.010;2023-02-15T17:52:25;17.10;;;12.70;;
3081;SDS011;1551;51.046;7.010;2023-02-15T17:55:18;14.40;;;12.38;;
3081;SDS011;1551;51.046;7.010;2023-02-15T17:58:26;17.10;;;11.93;;
3081;SDS011;1551;51.046;7.010;2023-02-15T18:01:16;16.70;;;11.80;;
3081;SDS011;1551;51.046;7.010;2023-02-15T18:04:26;16.07;;;12.60;;
3081;SDS011;1551;51.046;7.010;2023-02-15T18:07:33;17.15;;;12.90;;
3081;SDS011;1551;51.046;7.010;2023-02-15T18:10:41;15.70;;;12.15;;
3081;SDS011;1551;51.046;7.010;2023-02-15T18:13:49;16.02;;;12.75;;
3081;SDS011;1551;51.046;7.010;2023-02-15T18:16:39;18.23;;;11.93;;
3081;SDS011;1551;51.046;7.010;2023-02-15T18:19:30;16.15;;;12.48;;
3081;SDS011;1551;51.046;7.010;2023-02-15T18:22:20;17.88;;;12.60;;
3081;SDS011;1551;51.046;7.010;2023-02-15T18:25:12;15.98;;;12.20;;
3081;SDS011;1551;51.046;7.010;2023-02-15T18:28:01;16.02;;;12.35;;
3081;SDS011;1551;51.046;7.010;2023-02-15T18:30:50;15.38;;;12.13;;
3081;SDS011;1551;51.046;7.010;2023-02-15T18:33:46;13.90;;;11.63;;
3081;SDS011;1551;51.046;7.010;2023-02-15T18:36:41;15.30;;;11.85;;
3081;SDS011;1551;51.046;7.010;2023-02-15T18:42:32;16.23;;;13.25;;
3081;SDS011;1551;51.046;7.010;2023-02-15T18:45:24;15.85;;;12.63;;
3081;SDS011;1551;51.046;7.010;2023-02-15T18:48:16;16.90;;;12.75;;
3081;SDS011;1551;51.046;7.010;2023-02-15T18:51:08;15.85;;;12.68;;
3081;SDS011;1551;51.046;7.010;2023-02-15T18:54:05;17.80;;;12.85;;
3081;SDS011;1551;51.046;7.010;2023-02-15T18:57:03;17.48;;;13.70;;
3081;SDS011;1551;51.046;7.010;2023-02-15T18:59:52;19.42;;;15.10;;
3081;SDS011;1551;51.046;7.010;2023-02-15T19:02:41;18.85;;;14.07;;
3081;SDS011;1551;51.046;7.010;2023-02-15T19:05:31;19.73;;;15.60;;
3081;SDS011;1551;51.046;7.010;2023-02-15T19:08:21;19.27;;;15.40;;
3081;SDS011;1551;51.046;7.010;2023-02-15T19:11:19;19.73;;;14.18;;
3081;SDS011;1551;51.046;7.010;2023-02-15T19:14:18;17.30;;;13.17;;
3081;SDS011;1551;51.046;7.010;2023-02-15T19:17:15;16.92;;;12.57;;
3081;SDS011;1551;51.046;7.010;2023-02-15T19:20:08;17.15;;;14.70;;
3081;SDS011;1551;51.046;7.010;2023-02-15T19:23:02;19.47;;;14.60;;
3081;SDS011;1551;51.046;7.010;2023-02-15T19:25:54;22.73;;;16.23;;
3081;SDS011;1551;51.046;7.010;2023-02-15T19:28:43;20.27;;;15.90;;
3081;SDS011;1551;51.046;7.010;2023-02-15T19:31:33;20.30;;;17.10;;
3081;SDS011;1551;51.046;7.010;2023-02-15T19:34:22;19.90;;;17.20;;
3081;SDS011;1551;51.046;7.010;2023-02-15T19:37:19;18.70;;;16.10;;
3081;SDS011;1551;51.046;7.010;2023-02-15T19:40:15;22.73;;;17.20;;
3081;SDS011;1551;51.046;7.010;2023-02-15T19:43:17;21.70;;;17.90;;
3081;SDS011;1551;51.046;7.010;2023-02-15T19:46:10;21.75;;;17.40;;
3081;SDS011;1551;51.046;7.010;2023-02-15T19:49:06;20.27;;;18.08;;
3081;SDS011;1551;51.046;7.010;2023-02-15T19:51:57;27.00;;;21.40;;
3081;SDS011;1551;51.046;7.010;2023-02-15T19:54:47;26.52;;;23.73;;
3081;SDS011;1551;51.046;7.010;2023-02-15T19:57:36;24.65;;;22.05;;
3081;SDS011;1551;51.046;7.010;2023-02-15T20:00:29;20.70;;;17.55;;
3081;SDS011;1551;51.046;7.010;2023-02-15T20:03:20;19.98;;;17.25;;
3081;SDS011;1551;51.046;7.010;2023-02-15T20:06:12;18.67;;;15.37;;
3081;SDS011;1551;51.046;7.010;2023-02-15T20:09:03;17.38;;;15.57;;
3081;SDS011;1551;51.046;7.010;2023-02-15T20:11:52;18.15;;;14.50;;
3081;SDS011;1551;51.046;7.010;2023-02-15T20:14:42;18.02;;;15.00;;
3081;SDS011;1551;51.046;7.010;2023-02-15T20:17:31;17.25;;;15.07;;